sensor_id;sensor_type;location;lat;lon;timestamp;P1;durP1;ratioP1;P2;durP2;ratioP2
17570;SDS011;8903;52.220;20.978;2022-10-16T00:00:39;17.50;;;13.67;;
17570;SDS011;8903;52.220;20.978;2022-10-16T00:03:07;17.93;;;14.30;;
17570;SDS011;8903;52.220;20.978;2022-10-16T00:05:37;18.50;;;15.13;;
17570;SDS011;8903;52.220;20.978;2022-10-16T00:08:05;17.63;;;13.37;;
17570;SDS011;8903;52.220;20.978;2022-10-16T00:10:32;18.27;;;13.30;;
17570;SDS011;8903;52.220;20.978;2022-10-16T00:13:01;17.20;;;13.10;;
17570;SDS011;8903;52.220;20.978;2022-10-16T00:15:29;18.83;;;14.00;;
17570;SDS011;8903;52.220;20.978;2022-10-16T00:17:56;16.33;;;12.10;;
17570;SDS011;8903;52.220;20.978;2022-10-16T00:20:23;17.27;;;13.40;;
17570;SDS011;8903;52.220;20.978;2022-10-16T00:22:50;16.93;;;13.03;;
17570;SDS011;8903;52.220;20.978;2022-10-16T00:25:17;18.70;;;14.37;;
17570;SDS011;8903;52.220;20.978;2022-10-16T00:27:44;16.03;;;13.37;;
17570;SDS011;8903;52.220;20.978;2022-10-16T00:30:12;16.07;;;13.60;;
17570;SDS011;8903;52.220;20.978;2022-10-16T00:32:39;17.97;;;15.33;;
17570;SDS011;8903;52.220;20.978;2022-10-16T00:35:06;19.50;;;14.23;;
17570;SDS011;8903;52.220;20.978;2022-10-16T00:37:33;20.17;;;15.10;;
17570;SDS011;8903;52.220;20.978;2022-10-16T00:40:00;16.43;;;14.63;;
17570;SDS011;8903;52.220;20.978;2022-10-16T00:42:26;20.87;;;15.43;;
17570;SDS011;8903;52.220;20.978;2022-10-16T00:44:54;18.07;;;14.83;;
17570;SDS011;8903;52.220;20.978;2022-10-16T00:47:26;18.30;;;14.70;;
17570;SDS011;8903;52.220;20.978;2022-10-16T00:49:56;20.10;;;14.90;;
17570;SDS011;8903;52.220;20.978;2022-10-16T00:52:27;19.10;;;16.00;;
17570;SDS011;8903;52.220;20.978;2022-10-16T00:54:55;18.33;;;15.60;;
17570;SDS011;8903;52.220;20.978;2022-10-16T00:57:23;36.43;;;16.70;;
17570;SDS011;8903;52.220;20.978;2022-10-16T00:59:50;21.70;;;16.23;;
17570;SDS011;8903;52.220;20.978;2022-10-16T01:02:17;21.03;;;17.07;;
17570;SDS011;8903;52.220;20.978;2022-10-16T01:04:46;21.30;;;16.47;;
17570;SDS011;8903;52.220;20.978;2022-10-16T01:07:18;22.90;;;16.50;;
17570;SDS011;8903;52.220;20.978;2022-10-16T01:09:53;20.23;;;15.90;;
17570;SDS011;8903;52.220;20.978;2022-10-16T01:12:30;18.73;;;16.73;;
17570;SDS011;8903;52.220;20.978;2022-10-16T01:15:07;19.00;;;14.93;;
17570;SDS011;8903;52.220;20.978;2022-10-16T01:17:42;22.03;;;16.10;;
17570;SDS011;8903;52.220;20.978;2022-10-16T01:20:16;20.73;;;15.83;;
17570;SDS011;8903;52.220;20.978;2022-10-16T01:23:01;18.50;;;15.17;;
17570;SDS011;8903;52.220;20.978;2022-10-16T01:25:39;28.80;;;18.20;;
17570;SDS011;8903;52.220;20.978;2022-10-16T01:28:32;19.57;;;15.90;;
17570;SDS011;8903;52.220;20.978;2022-10-16T01:31:04;21.50;;;16.33;;
17570;SDS011;8903;52.220;20.978;2022-10-16T01:33:33;23.03;;;17.40;;
17570;SDS011;8903;52.220;20.978;2022-10-16T01:36:06;22.87;;;17.17;;
17570;SDS011;8903;52.220;20.978;2022-10-16T01:38:38;17.33;;;15.20;;
17570;SDS011;8903;52.220;20.978;2022-10-16T01:41:08;18.60;;;16.10;;
17570;SDS011;8903;52.220;20.978;2022-10-16T01:43:40;21.10;;;16.77;;
17570;SDS011;8903;52.220;20.978;2022-10-16T01:46:10;18.57;;;15.87;;
17570;SDS011;8903;52.220;20.978;2022-10-16T01:48:39;23.17;;;16.27;;
17570;SDS011;8903;52.220;20.978;2022-10-16T01:51:07;23.87;;;18.37;;
17570;SDS011;8903;52.220;20.978;2022-10-16T01:53:38;23.63;;;17.23;;
17570;SDS011;8903;52.220;20.978;2022-10-16T01:56:07;24.77;;;18.10;;
17570;SDS011;8903;52.220;20.978;2022-10-16T01:58:36;22.73;;;18.40;;
17570;SDS011;8903;52.220;20.978;2022-10-16T02:01:08;22.50;;;17.57;;
17570;SDS011;8903;52.220;20.978;2022-10-16T02:03:40;21.60;;;16.10;;
17570;SDS011;8903;52.220;20.978;2022-10-16T02:06:08;22.70;;;17.30;;
17570;SDS011;8903;52.220;20.978;2022-10-16T02:08:35;23.40;;;17.97;;
17570;SDS011;8903;52.220;20.978;2022-10-16T02:11:04;22.63;;;16.73;;
17570;SDS011;8903;52.220;20.978;2022-10-16T02:13:32;22.60;;;17.10;;
17570;SDS011;8903;52.220;20.978;2022-10-16T02:16:05;30.57;;;17.27;;
17570;SDS011;8903;52.220;20.978;2022-10-16T02:18:33;22.13;;;17.60;;
17570;SDS011;8903;52.220;20.978;2022-10-16T02:21:01;25.10;;;19.17;;
17570;SDS011;8903;52.220;20.978;2022-10-16T02:23:35;28.17;;;18.70;;
17570;SDS011;8903;52.220;20.978;2022-10-16T02:26:09;22.90;;;19.50;;
17570;SDS011;8903;52.220;20.978;2022-10-16T02:28:39;27.60;;;18.60;;
17570;SDS011;8903;52.220;20.978;2022-10-16T02:31:13;22.77;;;16.87;;
17570;SDS011;8903;52.220;20.978;2022-10-16T02:33:44;24.00;;;17.63;;
17570;SDS011;8903;52.220;20.978;2022-10-16T02:36:12;26.17;;;17.30;;
17570;SDS011;8903;52.220;20.978;2022-10-16T02:38:39;25.93;;;18.87;;
17570;SDS011;8903;52.220;20.978;2022-10-16T02:41:07;23.17;;;18.27;;
17570;SDS011;8903;52.220;20.978;2022-10-16T02:43:35;24.17;;;17.37;;
17570;SDS011;8903;52.220;20.978;2022-10-16T02:46:02;24.47;;;17.23;;
17570;SDS011;8903;52.220;20.978;2022-10-16T02:48:30;25.80;;;19.20;;
17570;SDS011;8903;52.220;20.978;2022-10-16T02:50:57;19.93;;;16.40;;
17570;SDS011;8903;52.220;20.978;2022-10-16T02:53:24;20.77;;;17.33;;
17570;SDS011;8903;52.220;20.978;2022-10-16T02:55:50;22.73;;;17.40;;
17570;SDS011;8903;52.220;20.978;2022-10-16T02:58:17;23.03;;;17.80;;
17570;SDS011;8903;52.220;20.978;2022-10-16T03:00:44;22.40;;;17.90;;
17570;SDS011;8903;52.220;20.978;2022-10-16T03:03:11;26.67;;;18.23;;
17570;SDS011;8903;52.220;20.978;2022-10-16T03:05:40;26.37;;;17.47;;
17570;SDS011;8903;52.220;20.978;2022-10-16T03:08:08;28.77;;;19.47;;
17570;SDS011;8903;52.220;20.978;2022-10-16T03:10:35;22.40;;;17.87;;
17570;SDS011;8903;52.220;20.978;2022-10-16T03:13:02;29.40;;;20.10;;
17570;SDS011;8903;52.220;20.978;2022-10-16T03:15:29;26.50;;;18.90;;
17570;SDS011;8903;52.220;20.978;2022-10-16T03:17:57;20.10;;;16.90;;
17570;SDS011;8903;52.220;20.978;2022-10-16T03:20:24;24.37;;;17.90;;
17570;SDS011;8903;52.220;20.978;2022-10-16T03:22:53;20.40;;;16.93;;
17570;SDS011;8903;52.220;20.978;2022-10-16T03:25:20;24.03;;;18.80;;
17570;SDS011;8903;52.220;20.978;2022-10-16T03:27:47;23.20;;;18.10;;
17570;SDS011;8903;52.220;20.978;2022-10-16T03:30:14;21.53;;;16.47;;
17570;SDS011;8903;52.220;20.978;2022-10-16T03:32:41;23.50;;;18.47;;
17570;SDS011;8903;52.220;20.978;2022-10-16T03:35:09;23.00;;;17.27;;
17570;SDS011;8903;52.220;20.978;2022-10-16T03:37:36;19.43;;;16.47;;
17570;SDS011;8903;52.220;20.978;2022-10-16T03:40:05;22.47;;;18.03;;
17570;SDS011;8903;52.220;20.978;2022-10-16T03:42:33;25.00;;;18.00;;
17570;SDS011;8903;52.220;20.978;2022-10-16T03:44:59;26.80;;;18.70;;
17570;SDS011;8903;52.220;20.978;2022-10-16T03:47:26;24.63;;;17.50;;
17570;SDS011;8903;52.220;20.978;2022-10-16T03:49:53;24.47;;;18.27;;
17570;SDS011;8903;52.220;20.978;2022-10-16T03:52:20;21.50;;;17.10;;
17570;SDS011;8903;52.220;20.978;2022-10-16T03:54:47;21.70;;;16.87;;
17570;SDS011;8903;52.220;20.978;2022-10-16T03:57:15;25.43;;;17.73;;
17570;SDS011;8903;52.220;20.978;2022-10-16T03:59:42;26.13;;;18.13;;
17570;SDS011;8903;52.220;20.978;2022-10-16T04:02:09;22.97;;;18.80;;
17570;SDS011;8903;52.220;20.978;2022-10-16T04:04:36;24.97;;;18.40;;
17570;SDS011;8903;52.220;20.978;2022-10-16T04:07:03;22.90;;;17.47;;
17570;SDS011;8903;52.220;20.978;2022-10-16T04:09:30;22.17;;;18.63;;
17570;SDS011;8903;52.220;20.978;2022-10-16T04:11:57;19.07;;;16.50;;
17570;SDS011;8903;52.220;20.978;2022-10-16T04:14:25;20.87;;;17.40;;
17570;SDS011;8903;52.220;20.978;2022-10-16T04:16:52;20.60;;;15.97;;
17570;SDS011;8903;52.220;20.978;2022-10-16T04:19:19;22.00;;;17.80;;
17570;SDS011;8903;52.220;20.978;2022-10-16T04:21:46;21.97;;;18.37;;
17570;SDS011;8903;52.220;20.978;2022-10-16T04:24:13;23.47;;;18.07;;
17570;SDS011;8903;52.220;20.978;2022-10-16T04:26:43;21.47;;;16.60;;
17570;SDS011;8903;52.220;20.978;2022-10-16T04:29:09;20.63;;;16.93;;
17570;SDS011;8903;52.220;20.978;2022-10-16T04:31:38;24.53;;;16.97;;
17570;SDS011;8903;52.220;20.978;2022-10-16T04:34:04;21.33;;;17.00;;
17570;SDS011;8903;52.220;20.978;2022-10-16T04:36:31;20.13;;;16.67;;
17570;SDS011;8903;52.220;20.978;2022-10-16T04:38:58;21.17;;;17.70;;
17570;SDS011;8903;52.220;20.978;2022-10-16T04:41:25;21.13;;;18.57;;
17570;SDS011;8903;52.220;20.978;2022-10-16T04:43:52;22.43;;;18.03;;
17570;SDS011;8903;52.220;20.978;2022-10-16T04:46:19;19.67;;;17.07;;
17570;SDS011;8903;52.220;20.978;2022-10-16T04:48:47;20.57;;;18.10;;
17570;SDS011;8903;52.220;20.978;2022-10-16T04:51:14;22.67;;;17.70;;
17570;SDS011;8903;52.220;20.978;2022-10-16T04:53:41;23.23;;;18.80;;
17570;SDS011;8903;52.220;20.978;2022-10-16T04:56:08;20.33;;;16.17;;
17570;SDS011;8903;52.220;20.978;2022-10-16T04:58:35;24.33;;;18.27;;
17570;SDS011;8903;52.220;20.978;2022-10-16T05:01:01;20.47;;;17.47;;
17570;SDS011;8903;52.220;20.978;2022-10-16T05:03:28;23.70;;;18.00;;
17570;SDS011;8903;52.220;20.978;2022-10-16T05:05:56;23.20;;;17.53;;
17570;SDS011;8903;52.220;20.978;2022-10-16T05:08:23;23.80;;;17.83;;
17570;SDS011;8903;52.220;20.978;2022-10-16T05:10:50;23.63;;;18.10;;
17570;SDS011;8903;52.220;20.978;2022-10-16T05:13:17;21.67;;;18.43;;
17570;SDS011;8903;52.220;20.978;2022-10-16T05:15:46;20.47;;;17.87;;
17570;SDS011;8903;52.220;20.978;2022-10-16T05:18:13;25.10;;;17.63;;
17570;SDS011;8903;52.220;20.978;2022-10-16T05:20:40;21.97;;;17.67;;
17570;SDS011;8903;52.220;20.978;2022-10-16T05:23:09;21.40;;;17.47;;
17570;SDS011;8903;52.220;20.978;2022-10-16T05:25:36;20.97;;;17.90;;
17570;SDS011;8903;52.220;20.978;2022-10-16T05:28:03;22.43;;;17.40;;
17570;SDS011;8903;52.220;20.978;2022-10-16T05:30:30;24.77;;;18.13;;
17570;SDS011;8903;52.220;20.978;2022-10-16T05:32:57;19.97;;;17.10;;
17570;SDS011;8903;52.220;20.978;2022-10-16T05:35:24;24.33;;;18.57;;
17570;SDS011;8903;52.220;20.978;2022-10-16T05:37:51;20.80;;;16.80;;
17570;SDS011;8903;52.220;20.978;2022-10-16T05:40:20;22.97;;;17.13;;
17570;SDS011;8903;52.220;20.978;2022-10-16T05:42:47;23.00;;;17.50;;
17570;SDS011;8903;52.220;20.978;2022-10-16T05:45:14;25.77;;;17.80;;
17570;SDS011;8903;52.220;20.978;2022-10-16T05:47:41;25.93;;;19.33;;
17570;SDS011;8903;52.220;20.978;2022-10-16T05:50:08;31.40;;;18.17;;
17570;SDS011;8903;52.220;20.978;2022-10-16T05:52:34;20.83;;;17.90;;
17570;SDS011;8903;52.220;20.978;2022-10-16T05:55:02;22.43;;;18.50;;
17570;SDS011;8903;52.220;20.978;2022-10-16T05:57:30;21.97;;;19.03;;
17570;SDS011;8903;52.220;20.978;2022-10-16T05:59:57;21.60;;;17.60;;
17570;SDS011;8903;52.220;20.978;2022-10-16T06:02:24;21.83;;;18.10;;
17570;SDS011;8903;52.220;20.978;2022-10-16T06:04:51;26.10;;;19.23;;
17570;SDS011;8903;52.220;20.978;2022-10-16T06:07:19;24.00;;;18.13;;
17570;SDS011;8903;52.220;20.978;2022-10-16T06:09:47;21.67;;;17.13;;
17570;SDS011;8903;52.220;20.978;2022-10-16T06:12:14;22.50;;;17.00;;
17570;SDS011;8903;52.220;20.978;2022-10-16T06:14:43;22.40;;;17.07;;
17570;SDS011;8903;52.220;20.978;2022-10-16T06:17:11;26.13;;;19.40;;
17570;SDS011;8903;52.220;20.978;2022-10-16T06:19:38;22.13;;;18.07;;
17570;SDS011;8903;52.220;20.978;2022-10-16T06:22:05;31.83;;;18.40;;
17570;SDS011;8903;52.220;20.978;2022-10-16T06:24:32;24.90;;;18.13;;
17570;SDS011;8903;52.220;20.978;2022-10-16T06:26:59;22.83;;;16.93;;
17570;SDS011;8903;52.220;20.978;2022-10-16T06:29:26;22.90;;;18.23;;
17570;SDS011;8903;52.220;20.978;2022-10-16T06:31:54;20.90;;;16.47;;
17570;SDS011;8903;52.220;20.978;2022-10-16T06:34:21;20.70;;;16.80;;
17570;SDS011;8903;52.220;20.978;2022-10-16T06:36:48;21.90;;;17.57;;
17570;SDS011;8903;52.220;20.978;2022-10-16T06:39:15;31.10;;;17.93;;
17570;SDS011;8903;52.220;20.978;2022-10-16T06:41:42;19.70;;;16.50;;
17570;SDS011;8903;52.220;20.978;2022-10-16T06:44:14;24.47;;;18.27;;
17570;SDS011;8903;52.220;20.978;2022-10-16T06:46:41;21.67;;;17.20;;
17570;SDS011;8903;52.220;20.978;2022-10-16T06:49:09;24.20;;;17.00;;
17570;SDS011;8903;52.220;20.978;2022-10-16T06:51:37;24.07;;;18.10;;
17570;SDS011;8903;52.220;20.978;2022-10-16T06:54:06;21.57;;;16.80;;
17570;SDS011;8903;52.220;20.978;2022-10-16T06:56:33;17.97;;;16.07;;
17570;SDS011;8903;52.220;20.978;2022-10-16T06:59:01;22.60;;;17.60;;
17570;SDS011;8903;52.220;20.978;2022-10-16T07:01:28;21.13;;;17.03;;
17570;SDS011;8903;52.220;20.978;2022-10-16T07:03:55;22.37;;;17.50;;
17570;SDS011;8903;52.220;20.978;2022-10-16T07:06:24;20.63;;;16.00;;
17570;SDS011;8903;52.220;20.978;2022-10-16T07:08:52;18.37;;;16.40;;
17570;SDS011;8903;52.220;20.978;2022-10-16T07:11:20;23.03;;;17.47;;
17570;SDS011;8903;52.220;20.978;2022-10-16T07:13:49;21.53;;;15.57;;
17570;SDS011;8903;52.220;20.978;2022-10-16T07:16:17;19.37;;;17.30;;
17570;SDS011;8903;52.220;20.978;2022-10-16T07:18:46;21.70;;;16.50;;
17570;SDS011;8903;52.220;20.978;2022-10-16T07:21:15;17.43;;;15.63;;
17570;SDS011;8903;52.220;20.978;2022-10-16T07:23:45;22.20;;;17.23;;
17570;SDS011;8903;52.220;20.978;2022-10-16T07:26:16;21.93;;;16.53;;
17570;SDS011;8903;52.220;20.978;2022-10-16T07:28:44;18.67;;;16.43;;
17570;SDS011;8903;52.220;20.978;2022-10-16T07:31:11;21.47;;;16.83;;
17570;SDS011;8903;52.220;20.978;2022-10-16T07:33:40;19.10;;;16.03;;
17570;SDS011;8903;52.220;20.978;2022-10-16T07:36:09;19.60;;;15.13;;
17570;SDS011;8903;52.220;20.978;2022-10-16T07:38:37;21.93;;;16.37;;
17570;SDS011;8903;52.220;20.978;2022-10-16T07:41:05;25.70;;;16.77;;
17570;SDS011;8903;52.220;20.978;2022-10-16T07:43:33;18.73;;;14.80;;
17570;SDS011;8903;52.220;20.978;2022-10-16T07:46:01;20.57;;;15.60;;
17570;SDS011;8903;52.220;20.978;2022-10-16T07:48:28;16.97;;;14.77;;
17570;SDS011;8903;52.220;20.978;2022-10-16T07:50:57;19.70;;;15.43;;
17570;SDS011;8903;52.220;20.978;2022-10-16T07:53:24;18.03;;;15.57;;
17570;SDS011;8903;52.220;20.978;2022-10-16T07:55:51;22.17;;;15.23;;
17570;SDS011;8903;52.220;20.978;2022-10-16T07:58:20;18.33;;;14.80;;
17570;SDS011;8903;52.220;20.978;2022-10-16T08:00:46;20.37;;;17.00;;
17570;SDS011;8903;52.220;20.978;2022-10-16T08:03:13;18.70;;;15.10;;
17570;SDS011;8903;52.220;20.978;2022-10-16T08:05:40;18.93;;;15.53;;
17570;SDS011;8903;52.220;20.978;2022-10-16T08:08:10;15.90;;;13.47;;
17570;SDS011;8903;52.220;20.978;2022-10-16T08:10:39;16.30;;;14.53;;
17570;SDS011;8903;52.220;20.978;2022-10-16T08:13:06;27.77;;;14.77;;
17570;SDS011;8903;52.220;20.978;2022-10-16T08:15:34;17.60;;;13.73;;
17570;SDS011;8903;52.220;20.978;2022-10-16T08:18:02;15.07;;;13.40;;
17570;SDS011;8903;52.220;20.978;2022-10-16T08:20:30;17.10;;;13.60;;
17570;SDS011;8903;52.220;20.978;2022-10-16T08:22:58;15.00;;;13.50;;
17570;SDS011;8903;52.220;20.978;2022-10-16T08:25:25;16.77;;;12.73;;
17570;SDS011;8903;52.220;20.978;2022-10-16T08:27:53;16.17;;;13.57;;
17570;SDS011;8903;52.220;20.978;2022-10-16T08:30:21;25.80;;;14.37;;
17570;SDS011;8903;52.220;20.978;2022-10-16T08:32:50;18.50;;;12.80;;
17570;SDS011;8903;52.220;20.978;2022-10-16T08:35:17;14.47;;;13.00;;
17570;SDS011;8903;52.220;20.978;2022-10-16T08:37:44;19.37;;;14.53;;
17570;SDS011;8903;52.220;20.978;2022-10-16T08:40:14;15.10;;;13.50;;
17570;SDS011;8903;52.220;20.978;2022-10-16T08:42:47;16.00;;;12.80;;
17570;SDS011;8903;52.220;20.978;2022-10-16T08:45:40;16.40;;;13.37;;
17570;SDS011;8903;52.220;20.978;2022-10-16T08:48:20;17.17;;;13.20;;
17570;SDS011;8903;52.220;20.978;2022-10-16T08:50:51;15.20;;;13.60;;
17570;SDS011;8903;52.220;20.978;2022-10-16T08:53:19;14.63;;;13.10;;
17570;SDS011;8903;52.220;20.978;2022-10-16T08:55:49;19.73;;;13.53;;
17570;SDS011;8903;52.220;20.978;2022-10-16T08:58:18;15.53;;;12.57;;
17570;SDS011;8903;52.220;20.978;2022-10-16T09:00:47;14.90;;;12.83;;
17570;SDS011;8903;52.220;20.978;2022-10-16T09:03:21;16.90;;;14.07;;
17570;SDS011;8903;52.220;20.978;2022-10-16T09:06:07;14.20;;;12.10;;
17570;SDS011;8903;52.220;20.978;2022-10-16T09:08:54;16.70;;;12.23;;
17570;SDS011;8903;52.220;20.978;2022-10-16T09:11:37;14.40;;;12.67;;
17570;SDS011;8903;52.220;20.978;2022-10-16T09:14:17;14.57;;;12.63;;
17570;SDS011;8903;52.220;20.978;2022-10-16T09:17:04;15.60;;;12.30;;
17570;SDS011;8903;52.220;20.978;2022-10-16T09:19:46;15.47;;;11.80;;
17570;SDS011;8903;52.220;20.978;2022-10-16T09:22:19;14.23;;;12.33;;
17570;SDS011;8903;52.220;20.978;2022-10-16T09:24:51;12.67;;;11.30;;
17570;SDS011;8903;52.220;20.978;2022-10-16T09:27:18;15.40;;;12.67;;
17570;SDS011;8903;52.220;20.978;2022-10-16T09:29:45;13.93;;;12.30;;
17570;SDS011;8903;52.220;20.978;2022-10-16T09:32:12;13.10;;;11.80;;
17570;SDS011;8903;52.220;20.978;2022-10-16T09:34:42;13.57;;;12.20;;
17570;SDS011;8903;52.220;20.978;2022-10-16T09:37:14;14.80;;;12.63;;
17570;SDS011;8903;52.220;20.978;2022-10-16T09:39:45;14.70;;;11.90;;
17570;SDS011;8903;52.220;20.978;2022-10-16T09:42:14;14.00;;;12.33;;
17570;SDS011;8903;52.220;20.978;2022-10-16T09:44:42;13.30;;;11.87;;
17570;SDS011;8903;52.220;20.978;2022-10-16T09:47:15;14.33;;;12.10;;
17570;SDS011;8903;52.220;20.978;2022-10-16T09:49:53;13.50;;;11.83;;
17570;SDS011;8903;52.220;20.978;2022-10-16T09:52:23;13.80;;;11.67;;
17570;SDS011;8903;52.220;20.978;2022-10-16T09:54:50;16.10;;;12.53;;
17570;SDS011;8903;52.220;20.978;2022-10-16T09:57:19;13.73;;;12.23;;
17570;SDS011;8903;52.220;20.978;2022-10-16T09:59:47;14.87;;;13.10;;
17570;SDS011;8903;52.220;20.978;2022-10-16T10:02:16;12.43;;;11.23;;
17570;SDS011;8903;52.220;20.978;2022-10-16T10:04:48;13.90;;;11.87;;
17570;SDS011;8903;52.220;20.978;2022-10-16T10:07:19;15.63;;;12.70;;
17570;SDS011;8903;52.220;20.978;2022-10-16T10:09:50;18.37;;;11.50;;
17570;SDS011;8903;52.220;20.978;2022-10-16T10:12:17;13.00;;;11.70;;
17570;SDS011;8903;52.220;20.978;2022-10-16T10:14:46;14.47;;;12.10;;
17570;SDS011;8903;52.220;20.978;2022-10-16T10:17:16;15.10;;;11.87;;
17570;SDS011;8903;52.220;20.978;2022-10-16T10:19:46;12.33;;;11.13;;
17570;SDS011;8903;52.220;20.978;2022-10-16T10:22:27;16.17;;;11.43;;
17570;SDS011;8903;52.220;20.978;2022-10-16T10:24:57;15.70;;;10.83;;
17570;SDS011;8903;52.220;20.978;2022-10-16T10:27:44;13.27;;;11.57;;
17570;SDS011;8903;52.220;20.978;2022-10-16T10:30:24;14.77;;;10.83;;
17570;SDS011;8903;52.220;20.978;2022-10-16T10:33:08;12.57;;;11.23;;
17570;SDS011;8903;52.220;20.978;2022-10-16T10:35:45;14.73;;;11.30;;
17570;SDS011;8903;52.220;20.978;2022-10-16T10:38:25;13.30;;;11.20;;
17570;SDS011;8903;52.220;20.978;2022-10-16T10:41:00;17.40;;;10.50;;
17570;SDS011;8903;52.220;20.978;2022-10-16T10:43:44;13.60;;;11.50;;
17570;SDS011;8903;52.220;20.978;2022-10-16T10:46:22;12.03;;;10.73;;
17570;SDS011;8903;52.220;20.978;2022-10-16T10:49:03;11.33;;;9.87;;
17570;SDS011;8903;52.220;20.978;2022-10-16T10:51:44;16.23;;;10.60;;
17570;SDS011;8903;52.220;20.978;2022-10-16T10:54:22;12.70;;;10.27;;
17570;SDS011;8903;52.220;20.978;2022-10-16T10:56:57;13.90;;;12.43;;
17570;SDS011;8903;52.220;20.978;2022-10-16T11:02:22;12.90;;;11.13;;
17570;SDS011;8903;52.220;20.978;2022-10-16T11:05:16;12.77;;;10.97;;
17570;SDS011;8903;52.220;20.978;2022-10-16T11:07:54;12.00;;;10.27;;
17570;SDS011;8903;52.220;20.978;2022-10-16T11:10:27;13.37;;;10.90;;
17570;SDS011;8903;52.220;20.978;2022-10-16T11:13:00;14.73;;;10.57;;
17570;SDS011;8903;52.220;20.978;2022-10-16T11:15:36;13.63;;;11.13;;
17570;SDS011;8903;52.220;20.978;2022-10-16T11:18:06;12.50;;;10.87;;
17570;SDS011;8903;52.220;20.978;2022-10-16T11:20:39;13.10;;;11.63;;
17570;SDS011;8903;52.220;20.978;2022-10-16T11:23:14;13.23;;;11.20;;
17570;SDS011;8903;52.220;20.978;2022-10-16T11:25:47;11.80;;;10.60;;
17570;SDS011;8903;52.220;20.978;2022-10-16T11:28:16;11.60;;;10.40;;
17570;SDS011;8903;52.220;20.978;2022-10-16T11:30:47;10.67;;;9.60;;
17570;SDS011;8903;52.220;20.978;2022-10-16T11:33:22;11.70;;;9.80;;
17570;SDS011;8903;52.220;20.978;2022-10-16T11:35:57;10.80;;;9.70;;
17570;SDS011;8903;52.220;20.978;2022-10-16T11:38:30;12.90;;;10.90;;
17570;SDS011;8903;52.220;20.978;2022-10-16T11:41:04;14.57;;;10.43;;
17570;SDS011;8903;52.220;20.978;2022-10-16T11:43:46;14.30;;;9.80;;
17570;SDS011;8903;52.220;20.978;2022-10-16T11:46:19;15.50;;;10.80;;
17570;SDS011;8903;52.220;20.978;2022-10-16T11:48:51;12.50;;;10.33;;
17570;SDS011;8903;52.220;20.978;2022-10-16T11:51:26;10.53;;;9.53;;
17570;SDS011;8903;52.220;20.978;2022-10-16T11:54:01;10.10;;;9.07;;
17570;SDS011;8903;52.220;20.978;2022-10-16T11:56:38;12.47;;;9.47;;
17570;SDS011;8903;52.220;20.978;2022-10-16T11:59:11;13.20;;;9.97;;
17570;SDS011;8903;52.220;20.978;2022-10-16T12:01:46;12.10;;;9.90;;
17570;SDS011;8903;52.220;20.978;2022-10-16T12:04:20;12.20;;;10.97;;
17570;SDS011;8903;52.220;20.978;2022-10-16T12:06:55;11.10;;;9.90;;
17570;SDS011;8903;52.220;20.978;2022-10-16T12:09:28;12.67;;;10.43;;
17570;SDS011;8903;52.220;20.978;2022-10-16T12:11:58;10.30;;;9.30;;
17570;SDS011;8903;52.220;20.978;2022-10-16T12:14:34;12.03;;;10.80;;
17570;SDS011;8903;52.220;20.978;2022-10-16T12:17:04;10.67;;;8.63;;
17570;SDS011;8903;52.220;20.978;2022-10-16T12:19:56;10.13;;;9.13;;
17570;SDS011;8903;52.220;20.978;2022-10-16T12:22:24;11.53;;;9.47;;
17570;SDS011;8903;52.220;20.978;2022-10-16T12:24:56;9.13;;;8.33;;
17570;SDS011;8903;52.220;20.978;2022-10-16T12:27:25;11.43;;;10.23;;
17570;SDS011;8903;52.220;20.978;2022-10-16T12:29:57;13.13;;;10.13;;
17570;SDS011;8903;52.220;20.978;2022-10-16T12:32:28;12.07;;;9.33;;
17570;SDS011;8903;52.220;20.978;2022-10-16T12:34:58;9.93;;;8.97;;
17570;SDS011;8903;52.220;20.978;2022-10-16T12:37:26;11.00;;;9.90;;
17570;SDS011;8903;52.220;20.978;2022-10-16T12:39:54;11.67;;;10.03;;
17570;SDS011;8903;52.220;20.978;2022-10-16T12:42:30;10.63;;;9.60;;
17570;SDS011;8903;52.220;20.978;2022-10-16T12:45:00;11.87;;;9.87;;
17570;SDS011;8903;52.220;20.978;2022-10-16T12:47:37;10.50;;;9.50;;
17570;SDS011;8903;52.220;20.978;2022-10-16T12:50:27;13.60;;;9.43;;
17570;SDS011;8903;52.220;20.978;2022-10-16T12:53:00;12.67;;;9.97;;
17570;SDS011;8903;52.220;20.978;2022-10-16T12:55:30;12.70;;;10.23;;
17570;SDS011;8903;52.220;20.978;2022-10-16T12:58:09;13.73;;;9.57;;
17570;SDS011;8903;52.220;20.978;2022-10-16T13:00:48;13.10;;;10.47;;
17570;SDS011;8903;52.220;20.978;2022-10-16T13:03:29;12.10;;;10.40;;
17570;SDS011;8903;52.220;20.978;2022-10-16T13:06:13;12.30;;;10.20;;
17570;SDS011;8903;52.220;20.978;2022-10-16T13:08:52;12.40;;;11.10;;
17570;SDS011;8903;52.220;20.978;2022-10-16T13:14:47;15.27;;;10.20;;
17570;SDS011;8903;52.220;20.978;2022-10-16T13:17:29;13.53;;;10.00;;
17570;SDS011;8903;52.220;20.978;2022-10-16T13:20:05;10.60;;;9.50;;
17570;SDS011;8903;52.220;20.978;2022-10-16T13:22:41;12.00;;;9.00;;
17570;SDS011;8903;52.220;20.978;2022-10-16T13:25:18;10.50;;;8.80;;
17570;SDS011;8903;52.220;20.978;2022-10-16T13:27:52;9.80;;;8.70;;
17570;SDS011;8903;52.220;20.978;2022-10-16T13:30:32;12.70;;;9.10;;
17570;SDS011;8903;52.220;20.978;2022-10-16T13:33:05;11.27;;;10.17;;
17570;SDS011;8903;52.220;20.978;2022-10-16T13:35:45;11.67;;;10.00;;
17570;SDS011;8903;52.220;20.978;2022-10-16T13:38:16;10.20;;;9.13;;
17570;SDS011;8903;52.220;20.978;2022-10-16T13:40:51;13.10;;;9.30;;
17570;SDS011;8903;52.220;20.978;2022-10-16T13:43:20;9.73;;;8.73;;
17570;SDS011;8903;52.220;20.978;2022-10-16T13:45:56;9.43;;;8.43;;
17570;SDS011;8903;52.220;20.978;2022-10-16T13:48:24;11.43;;;9.00;;
17570;SDS011;8903;52.220;20.978;2022-10-16T13:51:02;10.37;;;9.30;;
17570;SDS011;8903;52.220;20.978;2022-10-16T13:53:31;10.60;;;9.17;;
17570;SDS011;8903;52.220;20.978;2022-10-16T13:55:59;10.00;;;9.00;;
17570;SDS011;8903;52.220;20.978;2022-10-16T13:58:27;10.63;;;9.53;;
17570;SDS011;8903;52.220;20.978;2022-10-16T14:00:56;10.17;;;9.27;;
17570;SDS011;8903;52.220;20.978;2022-10-16T14:03:25;16.70;;;8.93;;
17570;SDS011;8903;52.220;20.978;2022-10-16T14:05:54;9.30;;;8.20;;
17570;SDS011;8903;52.220;20.978;2022-10-16T14:08:24;9.30;;;8.30;;
17570;SDS011;8903;52.220;20.978;2022-10-16T14:10:53;9.90;;;8.90;;
17570;SDS011;8903;52.220;20.978;2022-10-16T14:13:25;9.97;;;9.00;;
17570;SDS011;8903;52.220;20.978;2022-10-16T14:16:02;14.30;;;10.00;;
17570;SDS011;8903;52.220;20.978;2022-10-16T14:18:35;9.00;;;8.07;;
17570;SDS011;8903;52.220;20.978;2022-10-16T14:21:05;10.07;;;8.83;;
17570;SDS011;8903;52.220;20.978;2022-10-16T14:23:34;11.40;;;10.10;;
17570;SDS011;8903;52.220;20.978;2022-10-16T14:26:12;11.97;;;10.53;;
17570;SDS011;8903;52.220;20.978;2022-10-16T14:28:40;11.20;;;9.07;;
17570;SDS011;8903;52.220;20.978;2022-10-16T14:36:57;11.47;;;10.30;;
17570;SDS011;8903;52.220;20.978;2022-10-16T14:39:32;11.33;;;10.20;;
17570;SDS011;8903;52.220;20.978;2022-10-16T14:41:59;13.30;;;11.10;;
17570;SDS011;8903;52.220;20.978;2022-10-16T14:44:28;13.50;;;10.40;;
17570;SDS011;8903;52.220;20.978;2022-10-16T14:47:05;14.03;;;11.47;;
17570;SDS011;8903;52.220;20.978;2022-10-16T14:49:35;12.17;;;10.97;;
17570;SDS011;8903;52.220;20.978;2022-10-16T14:52:04;11.90;;;10.63;;
17570;SDS011;8903;52.220;20.978;2022-10-16T14:54:34;12.33;;;11.13;;